Time;durP1;ratioP1;P1;durP2;ratioP2;P2;SDS_P1;SDS_P2;PMS_P1;PMS_P2;Temp;Humidity;BMP_temperature;BMP_pressure;BME280_temperature;BME280_humidity;BME280_pressure;Samples;Min_cycle;Max_cycle;Signal;HPM_P1;HPM_P2
2023/10/20 00:01:10;;;;;;;46.00;23.27;;;;;;;-146.27;91.45;82297.81;5029719;28;20034;-69
2023/10/20 00:03:35;;;;;;;36.13;19.60;;;;;;;-146.27;91.37;82289.78;5019695;28;20038;-69
2023/10/20 00:06:00;;;;;;;33.22;20.27;;;;;;;-146.27;91.46;82295.81;5019763;28;20034;-68
2023/10/20 00:08:26;;;;;;;35.50;19.67;;;;;;;-146.27;91.36;82303.84;5026779;28;20033;-68
2023/10/20 00:10:52;;;;;;;38.20;19.90;;;;;;;-146.27;90.99;82299.81;5028218;28;20363;-67
2023/10/20 00:13:17;;;;;;;32.45;19.80;;;;;;;-146.27;90.79;82271.69;5022981;28;20057;-68
2023/10/20 00:15:46;;;;;;;31.15;18.83;;;;;;;-146.27;91.15;82293.78;5027469;28;20052;-68
2023/10/20 00:18:13;;;;;;;31.98;18.88;;;;;;;-146.27;91.25;82315.88;5028259;28;20489;-68
2023/10/20 00:20:38;;;;;;;36.25;20.85;;;;;;;-146.27;91.22;82283.75;5028987;28;20029;-69
2023/10/20 00:23:04;;;;;;;33.30;19.90;;;;;;;-146.27;90.99;82271.69;5015129;28;20471;-68
2023/10/20 00:25:29;;;;;;;30.48;19.40;;;;;;;-146.27;91.20;82307.84;5023359;28;20025;-68
2023/10/20 00:27:55;;;;;;;38.95;20.42;;;;;;;-146.27;91.38;82305.84;5019945;28;20021;-69
2023/10/20 00:30:21;;;;;;;30.98;19.58;;;;;;;-146.27;90.96;82267.69;5024878;28;20105;-68
2023/10/20 00:32:47;;;;;;;34.40;20.75;;;;;;;-146.27;90.93;82273.72;5020566;28;20136;-68
2023/10/20 00:35:15;;;;;;;34.90;20.92;;;;;;;-146.27;90.89;82233.53;5025413;28;20022;-68
2023/10/20 00:37:41;;;;;;;36.00;21.27;;;;;;;-146.27;90.61;82229.50;5029119;28;20421;-68
2023/10/20 00:40:08;;;;;;;35.25;20.63;;;;;;;-146.27;90.75;82231.53;5029682;28;20022;-68
2023/10/20 00:42:34;;;;;;;36.78;20.42;;;;;;;-146.27;90.76;82235.53;5021654;28;20029;-69
2023/10/20 00:44:59;;;;;;;39.63;22.10;;;;;;;-146.27;90.58;82241.56;5017031;28;20040;-69
2023/10/20 00:47:26;;;;;;;39.00;22.70;;;;;;;-146.27;91.04;82247.59;5026293;28;20029;-69
2023/10/20 00:49:52;;;;;;;36.28;22.52;;;;;;;-146.27;91.98;82366.09;5029615;28;20473;-68
2023/10/20 00:52:18;;;;;;;38.40;22.50;;;;;;;-146.27;91.29;82265.66;5030426;28;20033;-69
2023/10/20 00:54:46;;;;;;;35.78;22.60;;;;;;;-146.27;91.01;82279.72;5022422;28;20519;-69
2023/10/20 00:57:14;;;;;;;35.95;22.27;;;;;;;-146.27;91.01;82257.63;5028899;28;20037;-68
2023/10/20 00:59:40;;;;;;;38.85;22.25;;;;;;;-146.27;91.55;82317.91;5025219;28;20125;-68
2023/10/20 01:02:05;;;;;;;37.85;22.67;;;;;;;-146.27;91.30;82271.69;5026395;28;20021;-68
2023/10/20 01:04:31;;;;;;;39.28;23.10;;;;;;;-146.27;91.27;82271.69;5024710;28;20041;-68
2023/10/20 01:06:56;;;;;;;36.25;22.63;;;;;;;-146.27;91.48;82327.94;5029117;28;20026;-68
2023/10/20 01:09:26;;;;;;;40.30;24.13;;;;;;;-146.27;90.76;82255.63;5028775;28;20041;-68
2023/10/20 01:11:53;;;;;;;35.33;22.33;;;;;;;-146.27;91.19;82235.53;5024450;28;20435;-67
2023/10/20 01:14:19;;;;;;;36.42;23.55;;;;;;;-146.27;90.96;82331.97;5029039;28;20095;-66
2023/10/20 01:16:44;;;;;;;39.08;23.25;;;;;;;-146.27;91.04;82253.63;5025624;28;20046;-68
2023/10/20 01:19:10;;;;;;;40.72;24.38;;;;;;;-146.27;90.84;82259.66;5028234;28;20056;-67
2023/10/20 01:21:35;;;;;;;38.92;23.95;;;;;;;-146.27;90.67;82265.66;5017424;28;20030;-68
2023/10/20 01:24:02;;;;;;;37.50;23.83;;;;;;;-146.27;90.63;82215.44;5029801;28;20033;-67
2023/10/20 01:26:29;;;;;;;34.60;23.77;;;;;;;-146.27;90.91;82283.75;5029707;28;20027;-67
2023/10/20 01:28:55;;;;;;;38.20;23.95;;;;;;;-146.27;91.13;82269.69;5027345;28;20061;-68
2023/10/20 01:31:20;;;;;;;39.75;22.65;;;;;;;-146.27;90.66;82255.63;5027533;28;20052;-68
2023/10/20 01:33:46;;;;;;;36.42;23.10;;;;;;;-146.27;90.58;82257.63;5026652;28;20033;-67
2023/10/20 01:36:11;;;;;;;34.60;22.67;;;;;;;-146.27;90.62;82291.78;5028472;28;20501;-67
2023/10/20 01:38:37;;;;;;;37.38;24.23;;;;;;;-146.27;91.28;82311.88;5012201;28;20034;-68
2023/10/20 01:41:02;;;;;;;38.00;24.15;;;;;;;-146.27;91.15;82291.78;5013970;28;20025;-67
2023/10/20 01:43:28;;;;;;;40.30;23.52;;;;;;;-146.27;91.50;82335.97;5022772;28;20482;-68
2023/10/20 01:45:54;;;;;;;39.67;23.50;;;;;;;-146.27;91.16;82307.84;5026982;28;20036;-68
2023/10/20 01:48:20;;;;;;;34.78;22.45;;;;;;;-146.27;91.18;82323.91;5022189;28;20025;-67
2023/10/20 01:50:45;;;;;;;42.05;23.92;;;;;;;-146.27;91.19;82303.84;5022515;28;20372;-67
2023/10/20 01:53:11;;;;;;;34.42;24.30;;;;;;;-146.27;91.18;82313.88;5024468;28;20030;-68
2023/10/20 01:55:39;;;;;;;34.83;23.63;;;;;;;-146.27;91.04;82311.88;5015970;28;20039;-66
2023/10/20 01:58:05;;;;;;;36.92;22.83;;;;;;;-146.27;90.70;82313.88;5016633;28;20026;-68
2023/10/20 02:00:31;;;;;;;35.75;23.60;;;;;;;-146.27;90.54;82307.84;5025818;28;20099;-66
2023/10/20 02:02:56;;;;;;;37.00;22.60;;;;;;;-146.27;91.14;82307.84;5017466;28;20021;-67
2023/10/20 02:05:22;;;;;;;38.90;22.88;;;;;;;-146.27;91.33;82311.88;5018469;28;20516;-67
2023/10/20 02:07:48;;;;;;;36.80;22.25;;;;;;;-146.27;91.11;82327.94;5026812;28;20401;-67
2023/10/20 02:10:14;;;;;;;41.40;24.23;;;;;;;-146.27;91.48;82368.13;5026145;28;20030;-70
2023/10/20 02:12:40;;;;;;;36.30;22.83;;;;;;;-146.27;90.76;82295.81;5020964;28;20260;-70
2023/10/20 02:15:07;;;;;;;35.55;22.83;;;;;;;-146.27;90.83;82299.81;5027755;28;20145;-70
2023/10/20 02:17:34;;;;;;;44.65;23.30;;;;;;;-146.27;91.03;82325.94;5015128;28;20036;-70
2023/10/20 02:20:00;;;;;;;36.75;23.70;;;;;;;-146.27;91.02;82331.97;5026208;28;20536;-71
2023/10/20 02:22:25;;;;;;;37.95;23.15;;;;;;;-146.27;91.71;82364.09;5025664;28;20041;-70
2023/10/20 02:24:52;;;;;;;45.92;25.38;;;;;;;-146.27;91.33;82352.03;5029933;28;20025;-69
2023/10/20 02:27:18;;;;;;;38.08;24.48;;;;;;;-146.27;91.44;82360.09;5024580;28;20018;-70
2023/10/20 02:29:43;;;;;;;41.90;24.83;;;;;;;-146.27;91.26;82344.00;5037762;28;20104;-69
2023/10/20 02:32:08;;;;;;;39.83;25.13;;;;;;;-146.27;91.04;82337.97;5028666;28;20430;-70
2023/10/20 02:34:34;;;;;;;39.83;24.15;;;;;;;-146.27;91.42;82352.03;5010092;28;20482;-68
2023/10/20 02:36:59;;;;;;;38.20;23.48;;;;;;;-146.27;90.91;82309.88;5017541;28;20490;-70
2023/10/20 02:39:25;;;;;;;38.03;23.67;;;;;;;-146.27;90.73;82331.97;5026573;28;20031;-70
2023/10/20 02:41:50;;;;;;;39.25;25.73;;;;;;;-146.27;90.76;82307.84;5018411;28;20047;-69
2023/10/20 02:44:15;;;;;;;38.45;24.40;;;;;;;-146.27;90.50;82299.81;5026552;28;20027;-70
2023/10/20 02:46:41;;;;;;;41.65;25.95;;;;;;;-146.27;90.69;82303.84;5021908;28;20489;-70
2023/10/20 02:49:06;;;;;;;42.03;26.15;;;;;;;-146.27;91.25;82368.13;5017024;28;20025;-70
2023/10/20 02:51:32;;;;;;;41.45;24.95;;;;;;;-146.27;91.61;82376.16;5026195;28;20025;-70
2023/10/20 02:53:57;;;;;;;41.30;26.58;;;;;;;-146.27;91.29;82362.09;5017904;28;20495;-70
2023/10/20 02:56:23;;;;;;;42.25;27.42;;;;;;;-146.27;91.05;82331.97;5026271;28;20654;-69
2023/10/20 02:58:49;;;;;;;47.90;27.98;;;;;;;-146.27;91.10;82346.03;5014793;28;20040;-69
2023/10/20 03:01:17;;;;;;;50.65;28.75;;;;;;;-146.27;90.99;82364.09;5024070;28;20032;-69
2023/10/20 03:03:43;;;;;;;48.72;29.67;;;;;;;-146.27;91.15;82337.97;5015917;28;20037;-69
2023/10/20 03:06:09;;;;;;;53.60;30.27;;;;;;;-146.27;91.18;82412.31;5022856;28;20030;-69
2023/10/20 03:08:39;;;;;;;56.70;31.23;;;;;;;-146.27;91.08;82368.13;5018109;28;20149;-70
2023/10/20 03:11:06;;;;;;;47.95;29.25;;;;;;;-146.27;91.16;82400.25;5018455;28;20093;-69
2023/10/20 03:13:32;;;;;;;53.00;29.85;;;;;;;-146.27;91.04;82400.25;5022898;28;20100;-69
2023/10/20 03:15:57;;;;;;;51.15;29.65;;;;;;;-146.27;90.77;82388.22;5028663;28;20466;-69
2023/10/20 03:18:23;;;;;;;54.25;29.73;;;;;;;-146.27;90.51;82446.47;5018103;28;20367;-67
2023/10/20 03:20:49;;;;;;;57.42;30.67;;;;;;;-146.27;90.61;82400.25;5021603;28;20068;-68
2023/10/20 03:23:15;;;;;;;57.05;29.80;;;;;;;-146.27;90.52;82428.38;5031546;28;20111;-68
2023/10/20 03:25:41;;;;;;;53.53;28.80;;;;;;;-146.27;90.29;82416.31;5024269;28;20044;-69
2023/10/20 03:28:07;;;;;;;51.63;29.20;;;;;;;-146.27;90.91;82444.44;5016071;28;20026;-68
2023/10/20 03:30:42;;;;;;;56.20;29.80;;;;;;;-146.27;90.55;82448.47;5029920;28;20032;-67
2023/10/20 03:33:10;;;;;;;58.47;29.65;;;;;;;-146.27;90.50;82420.34;5031230;28;20117;-67
2023/10/20 03:35:36;;;;;;;56.88;28.30;;;;;;;-146.27;90.76;82436.41;5032833;28;20028;-68
2023/10/20 03:38:03;;;;;;;58.28;29.88;;;;;;;-146.27;90.40;82504.72;5020803;28;20390;-67
2023/10/20 03:40:30;;;;;;;51.78;29.13;;;;;;;-146.27;91.02;82516.78;5020846;28;20473;-67
2023/10/20 03:42:58;;;;;;;55.15;29.55;;;;;;;-146.27;90.21;82480.59;5013939;28;20096;-67
2023/10/20 03:45:24;;;;;;;56.85;27.80;;;;;;;-146.27;90.67;82486.63;5012654;28;20446;-68
2023/10/20 03:47:50;;;;;;;54.58;28.67;;;;;;;-146.27;90.18;82446.47;5025759;28;20032;-68
2023/10/20 03:50:16;;;;;;;54.72;28.35;;;;;;;-146.27;90.86;82560.97;5020690;28;20013;-67
2023/10/20 03:52:50;;;;;;;56.58;27.45;;;;;;;-146.27;90.77;82530.84;5018210;28;20045;-65
2023/10/20 03:55:16;;;;;;;56.30;28.08;;;;;;;-146.27;89.99;82534.84;5029855;28;20053;-70
2023/10/20 03:57:42;;;;;;;51.70;27.15;;;;;;;-146.27;90.05;82546.91;5027857;28;20056;-69
2023/10/20 04:00:20;;;;;;;54.15;26.08;;;;;;;-146.27;89.89;82536.84;5030502;28;20141;-68
2023/10/20 04:02:46;;;;;;;52.40;27.48;;;;;;;-146.27;89.91;82556.94;5017893;28;20113;-67
2023/10/20 04:05:13;;;;;;;53.95;27.00;;;;;;;-146.27;89.80;82542.88;5022941;28;20512;-69
2023/10/20 04:07:39;;;;;;;49.55;27.67;;;;;;;-146.27;89.59;82512.75;5031688;28;20394;-67
2023/10/20 04:10:06;;;;;;;50.70;26.98;;;;;;;-146.27;89.47;82609.19;5017084;28;20030;-75
2023/10/20 04:12:32;;;;;;;53.53;26.42;;;;;;;-146.27;89.86;82619.22;5022432;28;20029;-72
2023/10/20 04:14:57;;;;;;;53.92;26.05;;;;;;;-146.27;89.88;82595.13;5014530;28;20104;-72
2023/10/20 04:17:23;;;;;;;51.60;26.60;;;;;;;-146.27;89.56;82597.13;5020314;28;20060;-73
2023/10/20 04:19:49;;;;;;;56.83;26.02;;;;;;;-146.27;89.71;82589.09;5016223;28;20094;-72
2023/10/20 04:22:16;;;;;;;49.05;25.73;;;;;;;-146.27;89.31;82603.16;5028633;28;20071;-72
2023/10/20 04:24:42;;;;;;;56.88;27.17;;;;;;;-146.27;89.85;82625.25;5023260;28;20378;-70
2023/10/20 04:27:21;;;;;;;57.40;26.25;;;;;;;-146.27;89.79;82657.41;5018084;28;20079;-71
2023/10/20 04:54:10;;;;;;;54.95;25.58;;;;;;;-146.27;89.97;82785.97;5023383;28;20521;-74
2023/10/20 04:57:19;;;;;;;53.97;25.73;;;;;;;-146.27;90.01;82820.13;5023410;28;20108;-74
2023/10/20 04:59:31;;;;;;;53.70;25.05;;;;;;;-146.27;89.76;82777.94;5022989;28;20446;-74
2023/10/20 05:01:59;;;;;;;52.80;24.98;;;;;;;-146.27;90.32;82824.13;5021243;28;20033;-74
2023/10/20 05:04:28;;;;;;;49.35;23.80;;;;;;;-146.27;89.89;82781.94;5017908;28;20061;-74
2023/10/20 05:06:58;;;;;;;51.13;23.10;;;;;;;-146.27;89.91;82783.97;5015147;28;20481;-74
2023/10/20 05:09:25;;;;;;;51.25;23.33;;;;;;;-146.27;89.57;82777.94;5018440;28;20045;-74
2023/10/20 05:11:52;;;;;;;48.65;23.80;;;;;;;-146.27;89.69;82810.06;5019250;28;20043;-73
2023/10/20 05:14:18;;;;;;;47.63;23.77;;;;;;;-146.27;89.78;82808.06;5015944;28;20055;-74
2023/10/20 05:16:43;;;;;;;50.15;23.45;;;;;;;-146.27;89.60;82798.03;5023026;28;20167;-74
2023/10/20 05:19:10;;;;;;;50.95;23.33;;;;;;;-146.27;89.67;82860.31;5011944;28;20038;-75
2023/10/20 05:21:38;;;;;;;51.35;22.85;;;;;;;-146.27;90.07;82858.28;5024162;28;20052;-73
2023/10/20 05:24:04;;;;;;;49.00;23.58;;;;;;;-146.27;89.68;82775.91;5018865;28;20038;-73
2023/10/20 05:26:31;;;;;;;46.15;23.13;;;;;;;-146.27;89.25;82761.84;5028034;28;20469;-74
2023/10/20 05:28:56;;;;;;;47.38;22.98;;;;;;;-146.27;89.29;82777.94;5024882;28;20024;-74
2023/10/20 05:31:24;;;;;;;49.47;22.60;;;;;;;-146.27;89.07;82808.06;5026753;28;20025;-74
2023/10/20 05:33:49;;;;;;;47.80;22.38;;;;;;;-146.27;89.34;82830.16;5020917;28;20025;-68
2023/10/20 05:36:14;;;;;;;45.08;20.92;;;;;;;-146.27;89.04;82759.84;5020484;28;20041;-68
2023/10/20 05:38:40;;;;;;;43.00;20.45;;;;;;;-146.27;89.02;82826.16;5021180;28;20029;-68
2023/10/20 05:41:05;;;;;;;41.92;20.60;;;;;;;-146.27;89.55;82836.19;5029925;28;20102;-68
2023/10/20 05:43:31;;;;;;;53.40;24.30;;;;;;;-146.27;89.39;82842.22;5027294;28;20095;-68
2023/10/20 05:45:56;;;;;;;45.95;21.50;;;;;;;-146.27;89.52;82800.03;5022873;28;20033;-68
2023/10/20 05:48:22;;;;;;;45.40;22.55;;;;;;;-146.27;88.95;82777.94;5016981;28;20030;-68
2023/10/20 05:50:47;;;;;;;42.67;21.25;;;;;;;-146.27;89.08;82838.19;5020934;28;20457;-69
2023/10/20 05:53:14;;;;;;;42.95;20.92;;;;;;;-146.27;89.21;82844.22;5027161;28;20037;-73
2023/10/20 05:55:39;;;;;;;45.90;22.45;;;;;;;-146.27;89.05;82814.09;5026708;28;20422;-72
2023/10/20 05:58:06;;;;;;;49.33;22.67;;;;;;;-146.27;90.15;82954.72;5018264;28;20018;-72
2023/10/20 06:00:31;;;;;;;47.28;22.05;;;;;;;-146.27;89.71;82830.16;5026901;28;20040;-69
2023/10/20 06:02:57;;;;;;;44.80;21.38;;;;;;;-146.27;89.61;82892.44;5023678;28;20021;-69
2023/10/20 06:05:22;;;;;;;50.38;22.88;;;;;;;-146.27;89.96;82884.41;5016131;28;20351;-69
2023/10/20 06:07:48;;;;;;;45.55;21.20;;;;;;;-146.27;89.72;82860.31;5011799;28;20062;-68
2023/10/20 06:10:16;;;;;;;47.45;22.63;;;;;;;-146.27;89.66;82884.41;5016447;28;20071;-68
2023/10/20 06:12:42;;;;;;;47.08;21.98;;;;;;;-146.27;90.15;82950.72;5028684;28;20052;-69
2023/10/20 06:15:08;;;;;;;46.83;22.65;;;;;;;-146.27;89.86;82922.59;5013621;28;20554;-69
2023/10/20 06:17:34;;;;;;;48.78;22.40;;;;;;;-146.27;90.53;82932.63;5019974;28;20053;-68
2023/10/20 06:20:05;;;;;;;44.20;22.13;;;;;;;-146.27;90.26;82934.63;5011008;28;20022;-69
2023/10/20 06:22:31;;;;;;;45.15;21.85;;;;;;;-146.27;90.11;82918.56;5019286;28;20033;-69
2023/10/20 06:24:56;;;;;;;41.90;21.92;;;;;;;-146.27;89.67;82890.44;5014507;28;20034;-73
2023/10/20 06:27:22;;;;;;;44.88;23.15;;;;;;;-146.27;89.82;82934.63;5019903;28;20473;-72
2023/10/20 06:29:54;;;;;;;42.70;20.65;;;;;;;-146.27;89.45;82906.50;5024338;28;20030;-72
2023/10/20 06:35:03;;;;;;;;;;;;;;;-146.27;90.63;82988.88;5014154;28;20061;-72
2023/10/20 06:37:35;;;;;;;41.90;19.48;;;;;;;-146.27;89.91;82924.59;5014264;28;20412;-73
2023/10/20 06:40:01;;;;;;;36.40;18.42;;;;;;;-146.27;90.13;82948.69;5022997;28;20034;-73
2023/10/20 06:42:28;;;;;;;39.47;19.00;;;;;;;-146.27;89.68;82944.69;5018528;28;20036;-73
2023/10/20 06:44:54;;;;;;;38.22;18.45;;;;;;;-146.27;90.03;82928.59;5030150;28;20025;-73
2023/10/20 06:47:20;;;;;;;32.95;18.02;;;;;;;-146.27;89.65;82922.59;5014342;28;20108;-73
2023/10/20 06:49:46;;;;;;;36.40;17.08;;;;;;;-146.27;89.87;82942.66;5016165;28;20076;-70
2023/10/20 06:52:12;;;;;;;27.38;15.90;;;;;;;-146.27;89.77;82964.78;5014090;28;20025;-70
2023/10/20 06:54:37;;;;;;;29.98;15.88;;;;;;;-146.27;89.45;82942.66;5033684;28;20447;-72
2023/10/20 06:57:03;;;;;;;24.90;14.55;;;;;;;-146.27;89.90;82942.66;5020532;28;20017;-71
2023/10/20 06:59:28;;;;;;;28.13;14.75;;;;;;;-146.27;89.80;82974.81;5018468;28;20091;-70
2023/10/20 07:01:59;;;;;;;26.02;14.80;;;;;;;-146.27;90.19;82982.84;5020570;28;20032;-71
2023/10/20 07:04:26;;;;;;;23.35;13.45;;;;;;;-146.27;89.96;82998.94;5018670;28;20036;-69
2023/10/20 07:06:52;;;;;;;23.88;13.50;;;;;;;-146.27;89.84;82996.91;5013234;28;20030;-68
2023/10/20 07:09:17;;;;;;;23.88;12.70;;;;;;;-146.27;89.51;82970.81;5020378;28;20137;-72
2023/10/20 07:11:43;;;;;;;23.88;12.90;;;;;;;-146.27;90.26;83000.94;5022717;28;20030;-72
2023/10/20 07:14:11;;;;;;;20.67;11.70;;;;;;;-146.27;90.10;83041.13;5020941;28;20555;-71
2023/10/20 07:16:37;;;;;;;21.98;12.40;;;;;;;-146.27;90.00;83013.00;5015934;28;20045;-72
2023/10/20 07:19:03;;;;;;;20.15;11.90;;;;;;;-146.27;89.90;82998.94;5030682;28;20028;-73
2023/10/20 07:21:31;;;;;;;19.48;11.35;;;;;;;-146.27;90.73;83041.13;5026800;28;20108;-72
2023/10/20 07:23:58;;;;;;;17.00;10.30;;;;;;;-146.27;89.94;83023.03;5018736;28;20421;-71
2023/10/20 07:26:24;;;;;;;21.17;10.13;;;;;;;-146.27;89.79;82982.84;5030808;28;20029;-72
2023/10/20 07:28:50;;;;;;;17.05;9.95;;;;;;;-146.27;89.81;83023.03;5017296;28;20780;-72
2023/10/20 07:31:27;;;;;;;18.05;9.70;;;;;;;-146.27;90.23;83047.16;5025487;28;20029;-72
2023/10/20 07:33:53;;;;;;;18.85;9.57;;;;;;;-146.27;90.42;83021.03;5022145;28;20166;-71
2023/10/20 07:36:19;;;;;;;18.85;10.00;;;;;;;-146.27;90.42;83071.25;5023009;28;20034;-71
2023/10/20 07:38:44;;;;;;;18.08;9.85;;;;;;;-146.27;90.40;83051.16;5027246;28;20485;-71
2023/10/20 07:41:13;;;;;;;15.90;9.45;;;;;;;-146.27;90.42;83075.28;5019075;28;20033;-70
2023/10/20 07:43:39;;;;;;;16.45;9.68;;;;;;;-146.27;90.30;83063.22;5020256;28;20474;-70
2023/10/20 07:46:05;;;;;;;18.55;9.25;;;;;;;-146.27;90.52;83107.41;5028144;28;20026;-70
2023/10/20 07:48:32;;;;;;;18.23;8.85;;;;;;;-146.27;90.26;83071.25;5018421;28;20057;-70
2023/10/20 07:51:01;;;;;;;16.17;9.20;;;;;;;-146.27;89.82;83035.09;5028147;28;20017;-70
2023/10/20 07:53:29;;;;;;;19.10;9.02;;;;;;;-146.27;89.65;83083.31;5015852;28;20501;-70
2023/10/20 07:55:55;;;;;;;18.20;9.20;;;;;;;-146.27;90.14;83089.34;5014873;28;20079;-71
2023/10/20 07:58:23;;;;;;;15.95;8.82;;;;;;;-146.27;90.12;83075.28;5030040;28;20037;-73
2023/10/20 08:00:49;;;;;;;16.02;8.98;;;;;;;-146.27;90.81;83113.44;5021351;28;20026;-73
2023/10/20 08:03:14;;;;;;;18.20;8.88;;;;;;;-146.27;90.48;83075.28;5027100;28;20128;-74
2023/10/20 08:05:40;;;;;;;18.60;9.73;;;;;;;-146.27;90.13;83125.50;5027877;28;20068;-74
2023/10/20 08:08:06;;;;;;;13.88;8.13;;;;;;;-146.27;89.80;83073.25;5021200;28;20053;-74
2023/10/20 08:10:32;;;;;;;16.33;9.20;;;;;;;-146.27;89.94;83065.22;5032174;28;20033;-73
2023/10/20 08:12:59;;;;;;;17.10;8.43;;;;;;;-146.27;89.94;83071.25;5014497;28;20041;-73
2023/10/20 08:15:27;;;;;;;16.17;9.02;;;;;;;-146.27;89.94;83047.16;5027967;28;20041;-73
2023/10/20 08:17:53;;;;;;;17.02;8.98;;;;;;;-146.27;89.85;83109.44;5011821;28;20041;-73
2023/10/20 08:20:19;;;;;;;18.38;9.65;;;;;;;-146.27;89.93;83123.50;5013164;28;20100;-73
2023/10/20 08:22:44;;;;;;;17.70;9.60;;;;;;;-146.27;90.13;83099.38;5028628;28;20458;-73
2023/10/20 08:25:11;;;;;;;16.85;8.60;;;;;;;-146.27;90.63;83177.75;5016931;28;20025;-74
2023/10/20 08:27:36;;;;;;;18.08;9.13;;;;;;;-146.27;90.53;83117.47;5020725;28;20032;-73
2023/10/20 08:30:02;;;;;;;15.68;8.32;;;;;;;-146.27;91.04;83135.53;5027698;28;20013;-73
2023/10/20 08:32:28;;;;;;;19.80;8.90;;;;;;;-146.27;90.46;83119.47;5014360;28;20030;-73
2023/10/20 08:34:54;;;;;;;20.08;8.38;;;;;;;-146.27;90.45;83131.53;5026232;28;20033;-73
2023/10/20 08:37:19;;;;;;;14.32;7.95;;;;;;;-146.27;90.51;83143.59;5019196;28;20104;-73
2023/10/20 08:39:45;;;;;;;14.32;8.80;;;;;;;-146.27;90.20;83103.41;5025056;28;20033;-73
2023/10/20 08:42:18;;;;;;;20.88;8.70;;;;;;;-146.27;90.13;83137.56;5023854;28;20033;-74
2023/10/20 08:44:45;;;;;;;16.10;8.03;;;;;;;-146.27;90.03;83165.69;5026100;28;20029;-73
2023/10/20 08:47:15;;;;;;;19.63;8.00;;;;;;;-146.27;90.32;83141.56;5020141;28;20295;-73
2023/10/20 08:49:41;;;;;;;12.30;6.68;;;;;;;-146.27;90.07;83097.38;5034111;28;20105;-73
2023/10/20 08:52:10;;;;;;;12.48;7.30;;;;;;;-146.27;90.80;83207.88;5024585;28;20041;-74
2023/10/20 08:54:36;;;;;;;13.13;6.82;;;;;;;-146.27;90.77;83189.78;5031199;28;20452;-74
2023/10/20 08:57:04;;;;;;;13.40;6.85;;;;;;;-146.27;90.40;83125.50;5017311;28;20040;-73
2023/10/20 08:59:29;;;;;;;14.77;6.90;;;;;;;-146.27;90.10;83119.47;5020567;28;20480;-74
2023/10/20 09:01:55;;;;;;;11.77;6.00;;;;;;;-146.27;90.21;83143.59;5031121;28;20025;-73
2023/10/20 09:04:26;;;;;;;13.30;6.57;;;;;;;-146.27;90.18;83175.72;5029458;28;20041;-74
2023/10/20 09:06:54;;;;;;;13.63;6.43;;;;;;;-146.27;90.45;83143.59;5030090;28;20092;-74
2023/10/20 09:09:20;;;;;;;10.40;5.97;;;;;;;-146.27;90.82;83139.56;5019021;28;20394;-74
2023/10/20 09:11:47;;;;;;;11.48;6.63;;;;;;;-146.27;91.02;83232.00;5015344;28;20082;-74
2023/10/20 09:14:14;;;;;;;22.42;6.85;;;;;;;-146.27;90.97;83169.69;5012693;28;20034;-74
2023/10/20 09:16:39;;;;;;;10.32;5.90;;;;;;;-146.27;90.64;83199.84;5027249;28;20180;-73
2023/10/20 09:19:06;;;;;;;17.00;6.22;;;;;;;-146.27;90.37;83183.78;5015359;28;20108;-74
2023/10/20 09:21:31;;;;;;;11.65;5.90;;;;;;;-146.27;90.64;83187.78;5025541;28;20029;-74
2023/10/20 09:23:58;;;;;;;13.52;5.80;;;;;;;-146.27;89.85;83163.69;5024093;28;20033;-74
2023/10/20 09:26:26;;;;;;;9.02;5.25;;;;;;;-146.27;90.14;83215.91;5036903;28;20028;-73
2023/10/20 09:28:56;;;;;;;10.45;5.05;;;;;;;-146.27;90.00;83193.81;5036551;28;20474;-75
2023/10/20 09:31:23;;;;;;;10.38;4.80;;;;;;;-146.27;89.74;83147.59;5031948;28;20029;-74
2023/10/20 09:33:49;;;;;;;7.72;4.72;;;;;;;-146.27;90.08;83215.91;5040194;28;20481;-73
2023/10/20 09:36:15;;;;;;;8.20;4.80;;;;;;;-146.27;90.97;83232.00;5028190;28;20104;-73
2023/10/20 09:38:44;;;;;;;7.18;4.15;;;;;;;-146.27;90.91;83244.03;5029789;28;20037;-74
2023/10/20 09:41:11;;;;;;;7.38;4.57;;;;;;;-146.27;90.96;83232.00;5028163;28;20612;-70
2023/10/20 09:43:47;;;;;;;7.30;4.18;;;;;;;-146.27;91.33;83240.03;5026166;28;20485;-70
2023/10/20 09:46:36;;;;;;;6.38;4.32;;;;;;;-146.27;90.66;83221.94;5035822;28;20037;-70
2023/10/20 09:49:14;;;;;;;8.43;4.38;;;;;;;-146.27;90.85;83256.09;5027542;28;20061;-69
2023/10/20 09:51:42;;;;;;;8.73;4.18;;;;;;;-146.27;90.65;83211.91;5043812;28;20018;-70
2023/10/20 09:54:08;;;;;;;7.80;3.78;;;;;;;-146.27;90.10;83217.94;5035929;28;20394;-70
2023/10/20 09:56:34;;;;;;;7.15;4.18;;;;;;;-146.27;90.17;83227.97;5028115;28;20025;-70
2023/10/20 09:59:00;;;;;;;5.25;3.50;;;;;;;-146.27;90.20;83197.84;5035855;28;20029;-70
2023/10/20 10:01:26;;;;;;;5.65;3.25;;;;;;;-146.27;90.21;83252.09;5029584;28;20033;-69
2023/10/20 10:04:03;;;;;;;4.65;2.83;;;;;;;-146.27;90.39;83171.72;5032996;28;20028;-74
2023/10/20 10:06:36;;;;;;;4.55;2.97;;;;;;;-146.27;91.23;83300.31;5033093;28;20036;-76
2023/10/20 10:09:07;;;;;;;4.93;2.95;;;;;;;-146.27;90.55;83262.13;5030025;28;20025;-76
2023/10/20 10:11:41;;;;;;;5.75;3.00;;;;;;;-146.27;90.69;83272.19;5033547;28;20021;-76
2023/10/20 10:14:07;;;;;;;5.30;2.92;;;;;;;-146.27;90.44;83201.84;5030969;28;20117;-76
2023/10/20 10:16:51;;;;;;;5.03;2.80;;;;;;;-146.27;90.32;83260.13;5026437;28;20571;-77
2023/10/20 10:19:17;;;;;;;;;;;;;;;-146.27;90.39;83252.09;5035544;28;20053;-72
2023/10/20 10:21:42;;;;;;;7.68;2.67;;;;;;;-146.27;90.67;83280.22;5030147;28;19960;-73
2023/10/20 10:24:11;;;;;;;3.80;2.33;;;;;;;-146.27;90.74;83276.19;5020121;28;20397;-72
2023/10/20 10:26:57;;;;;;;6.40;2.72;;;;;;;-146.27;90.63;83240.03;5028579;28;20025;-73
2023/10/20 10:29:50;;;;;;;5.45;2.55;;;;;;;-146.27;90.72;83274.19;5024350;28;20505;-72
2023/10/20 10:32:20;;;;;;;3.80;2.60;;;;;;;-146.27;91.20;83320.41;5032455;28;20630;-68
2023/10/20 10:34:48;;;;;;;3.85;2.60;;;;;;;-146.27;91.15;83300.31;5019154;28;20033;-69
2023/10/20 10:37:27;;;;;;;7.00;2.90;;;;;;;-146.27;90.69;83280.22;5033799;28;20034;-68
2023/10/20 10:39:52;;;;;;;5.57;1.80;;;;;;;-146.27;91.27;83340.50;5049346;28;20029;-70
2023/10/20 10:42:19;;;;;;;3.88;2.00;;;;;;;-146.27;90.71;83268.16;5040372;28;20043;-68
2023/10/20 10:44:44;;;;;;;2.20;1.65;;;;;;;-146.27;90.36;83248.06;5034072;28;20033;-69
2023/10/20 10:47:19;;;;;;;3.45;2.28;;;;;;;-146.27;90.51;83227.97;5035855;28;20175;-68
2023/10/20 10:49:48;;;;;;;3.03;2.10;;;;;;;-146.27;90.60;83234.00;5042056;28;20033;-68
2023/10/20 10:52:14;;;;;;;2.53;1.50;;;;;;;-146.27;91.04;83288.25;5031487;28;20034;-68
2023/10/20 10:54:39;;;;;;;3.00;1.42;;;;;;;-146.27;90.80;83286.25;5035583;28;20051;-72
2023/10/20 10:57:05;;;;;;;2.47;1.33;;;;;;;-146.27;90.64;83260.13;5024673;28;20129;-71
2023/10/20 10:59:32;;;;;;;3.88;1.50;;;;;;;-146.27;90.47;83260.13;5034710;28;20529;-70
2023/10/20 11:02:00;;;;;;;1.58;1.27;;;;;;;-146.27;90.58;83294.28;5028059;28;20109;-69
2023/10/20 11:04:26;;;;;;;1.40;1.10;;;;;;;-146.27;90.62;83280.22;5034523;28;20040;-72
2023/10/20 11:06:51;;;;;;;2.03;1.30;;;;;;;-146.27;90.71;83298.28;5034289;28;20108;-71
2023/10/20 11:09:22;;;;;;;2.15;1.42;;;;;;;-146.27;90.45;83240.03;5039520;28;20503;-71
2023/10/20 11:11:48;;;;;;;6.78;1.17;;;;;;;-146.27;90.44;83260.13;5033507;28;20021;-70
2023/10/20 11:14:20;;;;;;;1.98;1.50;;;;;;;-146.27;90.33;83215.91;5034574;28;20033;-70
2023/10/20 11:16:47;;;;;;;1.10;1.00;;;;;;;-146.27;90.37;83284.22;5041066;28;20120;-70
2023/10/20 11:19:13;;;;;;;1.15;1.02;;;;;;;-146.27;90.44;83256.09;5043451;28;20341;-70
2023/10/20 11:21:49;;;;;;;2.22;1.13;;;;;;;-146.27;90.43;83223.94;5036824;28;20028;-71
2023/10/20 11:24:29;;;;;;;1.02;0.93;;;;;;;-146.27;90.72;83219.94;5026814;28;20057;-69
2023/10/20 11:27:02;;;;;;;1.58;1.30;;;;;;;-146.27;91.01;83296.28;5034629;28;20516;-67
2023/10/20 11:29:31;;;;;;;1.37;1.00;;;;;;;-146.27;90.93;83296.28;5032731;28;20065;-71
2023/10/20 11:32:00;;;;;;;1.42;1.15;;;;;;;-146.27;90.45;83236.00;5026058;28;20025;-71
2023/10/20 11:34:26;;;;;;;1.20;1.10;;;;;;;-146.27;90.31;83236.00;5028114;28;20639;-70